sensor_id;sensor_type;location;lat;lon;timestamp;temperature;humidity
9564;DHT22;4820;50.870;4.702;2023-04-01T00:00:56;10.00;99.90
9564;DHT22;4820;50.870;4.702;2023-04-01T00:03:23;10.00;99.90
9564;DHT22;4820;50.870;4.702;2023-04-01T00:05:50;10.00;99.90
9564;DHT22;4820;50.870;4.702;2023-04-01T00:08:16;10.00;99.90
9564;DHT22;4820;50.870;4.702;2023-04-01T00:10:42;10.00;99.90
9564;DHT22;4820;50.870;4.702;2023-04-01T00:13:08;10.00;99.90
9564;DHT22;4820;50.870;4.702;2023-04-01T00:15:34;10.00;99.90
9564;DHT22;4820;50.870;4.702;2023-04-01T00:18:01;10.00;99.90
9564;DHT22;4820;50.870;4.702;2023-04-01T00:20:27;10.00;99.90
9564;DHT22;4820;50.870;4.702;2023-04-01T00:22:53;10.00;99.90
9564;DHT22;4820;50.870;4.702;2023-04-01T00:25:19;10.00;99.90
9564;DHT22;4820;50.870;4.702;2023-04-01T00:27:45;10.00;99.90
9564;DHT22;4820;50.870;4.702;2023-04-01T00:30:11;10.00;99.90
9564;DHT22;4820;50.870;4.702;2023-04-01T00:32:37;10.00;99.90
9564;DHT22;4820;50.870;4.702;2023-04-01T00:35:03;10.10;99.90
9564;DHT22;4820;50.870;4.702;2023-04-01T00:37:30;10.10;99.90
9564;DHT22;4820;50.870;4.702;2023-04-01T00:39:56;10.10;99.90
9564;DHT22;4820;50.870;4.702;2023-04-01T00:42:22;10.10;99.90
9564;DHT22;4820;50.870;4.702;2023-04-01T00:44:52;10.10;99.90
9564;DHT22;4820;50.870;4.702;2023-04-01T00:47:18;10.10;99.90
9564;DHT22;4820;50.870;4.702;2023-04-01T00:49:45;10.10;99.90
9564;DHT22;4820;50.870;4.702;2023-04-01T00:52:15;10.10;99.90
9564;DHT22;4820;50.870;4.702;2023-04-01T00:54:44;10.10;99.90
9564;DHT22;4820;50.870;4.702;2023-04-01T00:57:32;10.00;99.90
9564;DHT22;4820;50.870;4.702;2023-04-01T00:59:59;10.00;99.90
9564;DHT22;4820;50.870;4.702;2023-04-01T01:02:26;10.00;99.90
9564;DHT22;4820;50.870;4.702;2023-04-01T01:04:52;10.00;99.90
9564;DHT22;4820;50.870;4.702;2023-04-01T01:18:35;10.00;99.90
9564;DHT22;4820;50.870;4.702;2023-04-01T01:29:29;10.00;99.90
9564;DHT22;4820;50.870;4.702;2023-04-01T01:37:19;10.10;99.90
9564;DHT22;4820;50.870;4.702;2023-04-01T01:39:50;10.10;99.90
9564;DHT22;4820;50.870;4.702;2023-04-01T01:42:16;10.10;99.90
9564;DHT22;4820;50.870;4.702;2023-04-01T01:44:45;10.10;99.90
9564;DHT22;4820;50.870;4.702;2023-04-01T01:47:13;10.10;99.90
9564;DHT22;4820;50.870;4.702;2023-04-01T01:49:42;10.10;99.90
9564;DHT22;4820;50.870;4.702;2023-04-01T01:52:08;10.20;99.90
9564;DHT22;4820;50.870;4.702;2023-04-01T01:54:34;10.20;99.90
9564;DHT22;4820;50.870;4.702;2023-04-01T01:57:09;10.20;99.90
9564;DHT22;4820;50.870;4.702;2023-04-01T01:59:37;10.20;99.90
9564;DHT22;4820;50.870;4.702;2023-04-01T02:02:04;10.20;99.90
9564;DHT22;4820;50.870;4.702;2023-04-01T02:04:44;10.20;99.90
9564;DHT22;4820;50.870;4.702;2023-04-01T02:07:16;10.20;99.90
9564;DHT22;4820;50.870;4.702;2023-04-01T02:09:44;10.20;99.90
9564;DHT22;4820;50.870;4.702;2023-04-01T02:12:13;10.20;99.90
9564;DHT22;4820;50.870;4.702;2023-04-01T02:15:03;10.20;99.90
9564;DHT22;4820;50.870;4.702;2023-04-01T02:17:31;10.20;99.90
9564;DHT22;4820;50.870;4.702;2023-04-01T02:20:01;10.20;99.90
9564;DHT22;4820;50.870;4.702;2023-04-01T02:22:33;10.20;99.90
9564;DHT22;4820;50.870;4.702;2023-04-01T02:25:11;10.20;99.90
9564;DHT22;4820;50.870;4.702;2023-04-01T02:27:39;10.20;99.90
9564;DHT22;4820;50.870;4.702;2023-04-01T02:30:06;10.20;99.90
9564;DHT22;4820;50.870;4.702;2023-04-01T02:32:34;10.20;99.90
9564;DHT22;4820;50.870;4.702;2023-04-01T02:35:00;10.20;99.90
9564;DHT22;4820;50.870;4.702;2023-04-01T02:37:31;10.20;99.90
9564;DHT22;4820;50.870;4.702;2023-04-01T02:40:02;10.20;99.90
9564;DHT22;4820;50.870;4.702;2023-04-01T02:42:28;10.10;99.90
9564;DHT22;4820;50.870;4.702;2023-04-01T02:44:53;10.10;99.90
9564;DHT22;4820;50.870;4.702;2023-04-01T02:47:19;10.10;99.90
9564;DHT22;4820;50.870;4.702;2023-04-01T02:49:45;10.00;99.90
9564;DHT22;4820;50.870;4.702;2023-04-01T02:52:10;10.00;99.90
9564;DHT22;4820;50.870;4.702;2023-04-01T02:54:36;9.90;99.90
9564;DHT22;4820;50.870;4.702;2023-04-01T02:57:02;9.90;99.90
9564;DHT22;4820;50.870;4.702;2023-04-01T02:59:27;9.90;99.90
9564;DHT22;4820;50.870;4.702;2023-04-01T03:01:53;9.90;99.90
9564;DHT22;4820;50.870;4.702;2023-04-01T03:04:19;9.90;99.90
9564;DHT22;4820;50.870;4.702;2023-04-01T03:06:44;9.90;99.90
9564;DHT22;4820;50.870;4.702;2023-04-01T03:09:10;9.90;99.90
9564;DHT22;4820;50.870;4.702;2023-04-01T03:11:36;9.90;99.90
9564;DHT22;4820;50.870;4.702;2023-04-01T03:14:01;9.90;99.90
9564;DHT22;4820;50.870;4.702;2023-04-01T03:16:27;9.90;99.90
9564;DHT22;4820;50.870;4.702;2023-04-01T03:18:53;9.90;99.90
9564;DHT22;4820;50.870;4.702;2023-04-01T03:21:23;9.90;99.90
9564;DHT22;4820;50.870;4.702;2023-04-01T03:23:49;9.90;99.90
9564;DHT22;4820;50.870;4.702;2023-04-01T03:26:15;9.90;99.90
9564;DHT22;4820;50.870;4.702;2023-04-01T03:28:42;9.90;99.90
9564;DHT22;4820;50.870;4.702;2023-04-01T03:31:10;9.90;99.90
9564;DHT22;4820;50.870;4.702;2023-04-01T03:33:36;9.90;99.90
9564;DHT22;4820;50.870;4.702;2023-04-01T03:36:02;9.90;99.90
9564;DHT22;4820;50.870;4.702;2023-04-01T03:38:32;9.90;99.90
9564;DHT22;4820;50.870;4.702;2023-04-01T03:40:58;10.00;99.90
9564;DHT22;4820;50.870;4.702;2023-04-01T03:43:24;9.90;99.90
9564;DHT22;4820;50.870;4.702;2023-04-01T03:45:51;9.90;99.90
9564;DHT22;4820;50.870;4.702;2023-04-01T03:48:18;10.00;99.90
9564;DHT22;4820;50.870;4.702;2023-04-01T03:50:44;9.90;99.90
9564;DHT22;4820;50.870;4.702;2023-04-01T03:53:10;10.00;99.90
9564;DHT22;4820;50.870;4.702;2023-04-01T03:55:36;10.00;99.90
9564;DHT22;4820;50.870;4.702;2023-04-01T03:58:03;10.00;99.90
9564;DHT22;4820;50.870;4.702;2023-04-01T04:00:29;10.00;99.90
9564;DHT22;4820;50.870;4.702;2023-04-01T04:02:56;10.00;99.90
9564;DHT22;4820;50.870;4.702;2023-04-01T04:05:25;10.00;99.90
9564;DHT22;4820;50.870;4.702;2023-04-01T04:07:52;10.00;99.90
9564;DHT22;4820;50.870;4.702;2023-04-01T04:10:18;10.00;99.90
9564;DHT22;4820;50.870;4.702;2023-04-01T04:12:44;10.00;99.90
9564;DHT22;4820;50.870;4.702;2023-04-01T04:15:09;10.00;99.90
9564;DHT22;4820;50.870;4.702;2023-04-01T04:17:35;10.00;99.90
9564;DHT22;4820;50.870;4.702;2023-04-01T04:20:01;10.00;99.90
9564;DHT22;4820;50.870;4.702;2023-04-01T04:22:27;10.00;99.90
9564;DHT22;4820;50.870;4.702;2023-04-01T04:24:53;10.00;99.90
9564;DHT22;4820;50.870;4.702;2023-04-01T04:27:19;10.00;99.90
9564;DHT22;4820;50.870;4.702;2023-04-01T04:29:45;10.00;99.90
9564;DHT22;4820;50.870;4.702;2023-04-01T04:32:10;10.00;99.90
9564;DHT22;4820;50.870;4.702;2023-04-01T04:34:36;10.00;99.90
9564;DHT22;4820;50.870;4.702;2023-04-01T04:37:02;10.00;99.90
9564;DHT22;4820;50.870;4.702;2023-04-01T04:39:27;9.90;99.90
9564;DHT22;4820;50.870;4.702;2023-04-01T04:41:53;10.00;99.90
9564;DHT22;4820;50.870;4.702;2023-04-01T04:44:19;9.90;99.90
9564;DHT22;4820;50.870;4.702;2023-04-01T04:46:44;9.90;99.90
9564;DHT22;4820;50.870;4.702;2023-04-01T04:49:10;9.90;99.90
9564;DHT22;4820;50.870;4.702;2023-04-01T04:51:36;9.80;99.90
9564;DHT22;4820;50.870;4.702;2023-04-01T04:54:06;9.80;99.90
9564;DHT22;4820;50.870;4.702;2023-04-01T04:56:32;9.80;99.90
9564;DHT22;4820;50.870;4.702;2023-04-01T04:58:58;9.80;99.90
9564;DHT22;4820;50.870;4.702;2023-04-01T05:01:24;9.80;99.90
9564;DHT22;4820;50.870;4.702;2023-04-01T05:03:51;9.70;99.90
9564;DHT22;4820;50.870;4.702;2023-04-01T05:06:19;9.80;99.90
9564;DHT22;4820;50.870;4.702;2023-04-01T05:08:45;9.70;99.90
9564;DHT22;4820;50.870;4.702;2023-04-01T05:11:16;9.70;99.90
9564;DHT22;4820;50.870;4.702;2023-04-01T05:13:51;9.80;99.90
9564;DHT22;4820;50.870;4.702;2023-04-01T05:16:20;9.80;99.90
9564;DHT22;4820;50.870;4.702;2023-04-01T05:18:48;9.80;99.90
9564;DHT22;4820;50.870;4.702;2023-04-01T05:21:15;9.80;99.90
9564;DHT22;4820;50.870;4.702;2023-04-01T05:23:42;9.80;99.90
9564;DHT22;4820;50.870;4.702;2023-04-01T05:26:11;9.80;99.90
9564;DHT22;4820;50.870;4.702;2023-04-01T05:28:37;9.80;99.90
9564;DHT22;4820;50.870;4.702;2023-04-01T05:31:04;9.80;99.90
9564;DHT22;4820;50.870;4.702;2023-04-01T05:33:31;9.90;99.90
9564;DHT22;4820;50.870;4.702;2023-04-01T05:36:05;9.80;99.90
9564;DHT22;4820;50.870;4.702;2023-04-01T05:38:32;9.80;99.90
9564;DHT22;4820;50.870;4.702;2023-04-01T05:40:59;9.80;99.90
9564;DHT22;4820;50.870;4.702;2023-04-01T05:43:26;9.80;99.90
9564;DHT22;4820;50.870;4.702;2023-04-01T05:45:51;9.80;99.90
9564;DHT22;4820;50.870;4.702;2023-04-01T05:48:17;9.90;99.90
9564;DHT22;4820;50.870;4.702;2023-04-01T05:50:42;9.90;99.90
9564;DHT22;4820;50.870;4.702;2023-04-01T05:53:08;9.90;99.90
9564;DHT22;4820;50.870;4.702;2023-04-01T05:55:35;9.90;99.90
9564;DHT22;4820;50.870;4.702;2023-04-01T05:58:01;9.90;99.90
9564;DHT22;4820;50.870;4.702;2023-04-01T06:00:27;9.90;99.90
9564;DHT22;4820;50.870;4.702;2023-04-01T06:02:52;9.90;99.90
9564;DHT22;4820;50.870;4.702;2023-04-01T06:05:24;9.90;99.90
9564;DHT22;4820;50.870;4.702;2023-04-01T06:07:57;9.90;99.90
9564;DHT22;4820;50.870;4.702;2023-04-01T06:11:17;9.90;99.90
9564;DHT22;4820;50.870;4.702;2023-04-01T06:13:43;9.90;99.90
9564;DHT22;4820;50.870;4.702;2023-04-01T06:18:59;9.90;99.90
9564;DHT22;4820;50.870;4.702;2023-04-01T06:21:43;9.90;99.90
9564;DHT22;4820;50.870;4.702;2023-04-01T06:27:05;9.90;99.90
9564;DHT22;4820;50.870;4.702;2023-04-01T06:29:49;9.90;99.90
9564;DHT22;4820;50.870;4.702;2023-04-01T06:44:04;9.90;99.90
9564;DHT22;4820;50.870;4.702;2023-04-01T06:54:44;10.00;99.90
9564;DHT22;4820;50.870;4.702;2023-04-01T06:57:38;9.90;99.90
9564;DHT22;4820;50.870;4.702;2023-04-01T07:00:40;10.00;99.90
9564;DHT22;4820;50.870;4.702;2023-04-01T07:05:39;10.00;99.90
9564;DHT22;4820;50.870;4.702;2023-04-01T07:08:09;9.90;99.90
9564;DHT22;4820;50.870;4.702;2023-04-01T07:13:43;9.90;99.90
9564;DHT22;4820;50.870;4.702;2023-04-01T07:16:34;9.90;99.90
9564;DHT22;4820;50.870;4.702;2023-04-01T07:19:29;9.90;99.90
9564;DHT22;4820;50.870;4.702;2023-04-01T07:22:09;10.00;99.90
9564;DHT22;4820;50.870;4.702;2023-04-01T07:24:41;10.00;99.90
9564;DHT22;4820;50.870;4.702;2023-04-01T07:27:11;10.00;99.90
9564;DHT22;4820;50.870;4.702;2023-04-01T07:29:36;10.00;99.90
9564;DHT22;4820;50.870;4.702;2023-04-01T07:38:18;9.90;99.90
9564;DHT22;4820;50.870;4.702;2023-04-01T07:41:07;10.00;99.90
9564;DHT22;4820;50.870;4.702;2023-04-01T07:44:02;10.00;99.90
9564;DHT22;4820;50.870;4.702;2023-04-01T07:46:40;10.00;99.90
9564;DHT22;4820;50.870;4.702;2023-04-01T07:52:56;10.10;99.90
9564;DHT22;4820;50.870;4.702;2023-04-01T07:55:18;10.10;99.90
9564;DHT22;4820;50.870;4.702;2023-04-01T07:58:14;10.10;99.90
9564;DHT22;4820;50.870;4.702;2023-04-01T08:09:06;10.30;99.90
9564;DHT22;4820;50.870;4.702;2023-04-01T08:14:11;10.30;99.90
9564;DHT22;4820;50.870;4.702;2023-04-01T08:22:28;10.20;99.90
9564;DHT22;4820;50.870;4.702;2023-04-01T08:24:56;10.20;99.90
9564;DHT22;4820;50.870;4.702;2023-04-01T08:27:38;10.30;99.90
9564;DHT22;4820;50.870;4.702;2023-04-01T08:36:05;10.40;99.90
9564;DHT22;4820;50.870;4.702;2023-04-01T08:41:07;10.40;99.90
9564;DHT22;4820;50.870;4.702;2023-04-01T08:55:20;10.40;99.90
9564;DHT22;4820;50.870;4.702;2023-04-01T09:09:09;10.60;99.90
9564;DHT22;4820;50.870;4.702;2023-04-01T09:12:15;10.60;99.90
9564;DHT22;4820;50.870;4.702;2023-04-01T09:20:46;10.50;99.90
9564;DHT22;4820;50.870;4.702;2023-04-01T09:23:28;10.50;99.90
9564;DHT22;4820;50.870;4.702;2023-04-01T09:28:54;10.70;99.90
9564;DHT22;4820;50.870;4.702;2023-04-01T09:36:46;10.80;99.90
9564;DHT22;4820;50.870;4.702;2023-04-01T09:39:30;10.80;99.90
9564;DHT22;4820;50.870;4.702;2023-04-01T09:48:18;10.80;99.90
9564;DHT22;4820;50.870;4.702;2023-04-01T09:59:39;10.90;99.90
9564;DHT22;4820;50.870;4.702;2023-04-01T10:05:24;11.00;99.90
9564;DHT22;4820;50.870;4.702;2023-04-01T10:14:06;11.00;99.90
9564;DHT22;4820;50.870;4.702;2023-04-01T10:36:47;11.40;99.90
9564;DHT22;4820;50.870;4.702;2023-04-01T10:42:12;11.40;99.90
9564;DHT22;4820;50.870;4.702;2023-04-01T11:55:10;11.50;99.90
9564;DHT22;4820;50.870;4.702;2023-04-01T11:57:51;11.50;99.90
9564;DHT22;4820;50.870;4.702;2023-04-01T12:03:32;11.60;99.90
9564;DHT22;4820;50.870;4.702;2023-04-01T12:06:05;11.50;99.90
9564;DHT22;4820;50.870;4.702;2023-04-01T12:11:43;11.70;99.90
9564;DHT22;4820;50.870;4.702;2023-04-01T12:14:33;11.70;99.90
9564;DHT22;4820;50.870;4.702;2023-04-01T12:17:36;11.60;99.90
9564;DHT22;4820;50.870;4.702;2023-04-01T12:31:59;11.80;99.90
9564;DHT22;4820;50.870;4.702;2023-04-01T12:34:52;11.90;99.90
9564;DHT22;4820;50.870;4.702;2023-04-01T12:37:40;11.80;99.90
9564;DHT22;4820;50.870;4.702;2023-04-01T12:52:18;11.50;99.90
9564;DHT22;4820;50.870;4.702;2023-04-01T12:57:52;11.50;99.90
9564;DHT22;4820;50.870;4.702;2023-04-01T13:03:11;11.60;99.90
9564;DHT22;4820;50.870;4.702;2023-04-01T13:09:06;11.80;99.90
9564;DHT22;4820;50.870;4.702;2023-04-01T13:14:51;11.60;99.90
9564;DHT22;4820;50.870;4.702;2023-04-01T13:17:46;11.40;99.90
9564;DHT22;4820;50.870;4.702;2023-04-01T13:26:22;11.30;99.90
9564;DHT22;4820;50.870;4.702;2023-04-01T13:42:57;11.00;99.90
9564;DHT22;4820;50.870;4.702;2023-04-01T13:48:29;10.90;99.90
9564;DHT22;4820;50.870;4.702;2023-04-01T14:01:53;11.10;99.90
9564;DHT22;4820;50.870;4.702;2023-04-01T14:04:50;11.10;99.90
9564;DHT22;4820;50.870;4.702;2023-04-01T14:10:25;11.10;99.90
9564;DHT22;4820;50.870;4.702;2023-04-01T14:13:08;11.10;99.90
9564;DHT22;4820;50.870;4.702;2023-04-01T14:28:58;11.00;99.90
9564;DHT22;4820;50.870;4.702;2023-04-01T14:31:41;11.00;99.90
9564;DHT22;4820;50.870;4.702;2023-04-01T14:34:18;11.00;99.90
9564;DHT22;4820;50.870;4.702;2023-04-01T14:51:41;11.60;99.90
9564;DHT22;4820;50.870;4.702;2023-04-01T14:54:37;11.70;99.90
9564;DHT22;4820;50.870;4.702;2023-04-01T14:57:14;11.90;99.90
9564;DHT22;4820;50.870;4.702;2023-04-01T15:00:26;12.00;99.90
9564;DHT22;4820;50.870;4.702;2023-04-01T15:05:26;12.30;99.90
9564;DHT22;4820;50.870;4.702;2023-04-01T15:08:08;12.20;99.90
9564;DHT22;4820;50.870;4.702;2023-04-01T15:18:26;11.80;99.90
9564;DHT22;4820;50.870;4.702;2023-04-01T15:24:26;11.90;99.90
9564;DHT22;4820;50.870;4.702;2023-04-01T15:34:53;11.70;99.90
9564;DHT22;4820;50.870;4.702;2023-04-01T15:42:54;11.50;99.90
9564;DHT22;4820;50.870;4.702;2023-04-01T16:04:41;11.00;99.90
9564;DHT22;4820;50.870;4.702;2023-04-01T16:07:40;11.00;99.90
9564;DHT22;4820;50.870;4.702;2023-04-01T16:16:19;10.80;99.90
9564;DHT22;4820;50.870;4.702;2023-04-01T16:19:03;10.80;99.90
9564;DHT22;4820;50.870;4.702;2023-04-01T16:30:55;10.80;99.90
9564;DHT22;4820;50.870;4.702;2023-04-01T16:41:17;10.60;99.90
9564;DHT22;4820;50.870;4.702;2023-04-01T16:43:50;10.60;99.90
9564;DHT22;4820;50.870;4.702;2023-04-01T16:51:33;10.60;99.90
9564;DHT22;4820;50.870;4.702;2023-04-01T16:54:11;10.50;99.90
9564;DHT22;4820;50.870;4.702;2023-04-01T17:02:26;10.40;99.90
9564;DHT22;4820;50.870;4.702;2023-04-01T17:10:28;10.30;99.90
9564;DHT22;4820;50.870;4.702;2023-04-01T17:13:10;10.30;99.90
9564;DHT22;4820;50.870;4.702;2023-04-01T17:18:36;10.20;99.90
9564;DHT22;4820;50.870;4.702;2023-04-01T17:30:19;10.10;99.90
9564;DHT22;4820;50.870;4.702;2023-04-01T17:35:59;10.10;99.90
9564;DHT22;4820;50.870;4.702;2023-04-01T17:42:06;10.10;99.90
9564;DHT22;4820;50.870;4.702;2023-04-01T17:50:42;10.10;99.90
9564;DHT22;4820;50.870;4.702;2023-04-01T17:56:14;10.10;99.90
9564;DHT22;4820;50.870;4.702;2023-04-01T17:58:44;10.10;99.90
9564;DHT22;4820;50.870;4.702;2023-04-01T18:04:18;10.10;99.90
9564;DHT22;4820;50.870;4.702;2023-04-01T18:12:31;10.10;99.90
9564;DHT22;4820;50.870;4.702;2023-04-01T18:15:25;10.00;99.90
9564;DHT22;4820;50.870;4.702;2023-04-01T18:24:11;10.10;99.90
9564;DHT22;4820;50.870;4.702;2023-04-01T18:26:44;10.00;99.90
9564;DHT22;4820;50.870;4.702;2023-04-01T18:29:35;10.00;99.90
9564;DHT22;4820;50.870;4.702;2023-04-01T18:32:15;10.00;99.90
9564;DHT22;4820;50.870;4.702;2023-04-01T18:37:45;10.10;99.90
9564;DHT22;4820;50.870;4.702;2023-04-01T18:43:33;10.00;99.90
9564;DHT22;4820;50.870;4.702;2023-04-01T18:46:37;10.00;99.90
9564;DHT22;4820;50.870;4.702;2023-04-01T18:51:57;10.00;99.90
9564;DHT22;4820;50.870;4.702;2023-04-01T18:54:27;10.00;99.90
9564;DHT22;4820;50.870;4.702;2023-04-01T18:57:13;10.00;99.90
9564;DHT22;4820;50.870;4.702;2023-04-01T18:59:56;9.90;99.90
9564;DHT22;4820;50.870;4.702;2023-04-01T19:05:12;9.90;99.90
9564;DHT22;4820;50.870;4.702;2023-04-01T19:07:53;9.90;99.90
9564;DHT22;4820;50.870;4.702;2023-04-01T19:13:37;9.90;99.90
9564;DHT22;4820;50.870;4.702;2023-04-01T19:36:20;9.90;99.90
9564;DHT22;4820;50.870;4.702;2023-04-01T19:41:40;9.80;99.90
9564;DHT22;4820;50.870;4.702;2023-04-01T19:44:12;9.80;99.90
9564;DHT22;4820;50.870;4.702;2023-04-01T19:54:53;9.80;99.90
9564;DHT22;4820;50.870;4.702;2023-04-01T19:57:41;9.70;99.90
9564;DHT22;4820;50.870;4.702;2023-04-01T20:05:48;9.70;99.90
9564;DHT22;4820;50.870;4.702;2023-04-01T20:08:36;9.70;99.90
9564;DHT22;4820;50.870;4.702;2023-04-01T20:11:18;9.70;99.90
9564;DHT22;4820;50.870;4.702;2023-04-01T20:13:56;9.60;99.90
9564;DHT22;4820;50.870;4.702;2023-04-01T20:19:12;9.60;99.90
9564;DHT22;4820;50.870;4.702;2023-04-01T20:21:43;9.60;99.90
9564;DHT22;4820;50.870;4.702;2023-04-01T20:26:45;9.60;99.90
9564;DHT22;4820;50.870;4.702;2023-04-01T20:29:27;9.60;99.90
9564;DHT22;4820;50.870;4.702;2023-04-01T20:35:01;9.60;99.90
9564;DHT22;4820;50.870;4.702;2023-04-01T20:37:48;9.60;99.90
9564;DHT22;4820;50.870;4.702;2023-04-01T20:41:01;9.60;99.90
9564;DHT22;4820;50.870;4.702;2023-04-01T20:51:06;9.70;99.90
9564;DHT22;4820;50.870;4.702;2023-04-01T20:53:50;9.70;99.90
9564;DHT22;4820;50.870;4.702;2023-04-01T20:56:24;9.70;99.90
9564;DHT22;4820;50.870;4.702;2023-04-01T21:02:09;9.70;99.90
9564;DHT22;4820;50.870;4.702;2023-04-01T21:12:48;9.90;99.90
9564;DHT22;4820;50.870;4.702;2023-04-01T21:25:50;10.00;99.90
9564;DHT22;4820;50.870;4.702;2023-04-01T22:04:59;10.10;99.90
9564;DHT22;4820;50.870;4.702;2023-04-01T22:07:58;10.10;99.90
9564;DHT22;4820;50.870;4.702;2023-04-01T22:10:45;10.10;99.90
9564;DHT22;4820;50.870;4.702;2023-04-01T22:13:41;10.10;99.90
9564;DHT22;4820;50.870;4.702;2023-04-01T22:19:11;10.10;99.90
9564;DHT22;4820;50.870;4.702;2023-04-01T22:21:52;10.10;99.90
9564;DHT22;4820;50.870;4.702;2023-04-01T22:32:28;10.00;99.90
9564;DHT22;4820;50.870;4.702;2023-04-01T22:35:10;10.00;99.90
9564;DHT22;4820;50.870;4.702;2023-04-01T22:43:12;10.00;99.90
9564;DHT22;4820;50.870;4.702;2023-04-01T22:45:47;9.90;99.90
9564;DHT22;4820;50.870;4.702;2023-04-01T22:48:41;9.90;99.90
9564;DHT22;4820;50.870;4.702;2023-04-01T22:56:37;9.90;99.90
9564;DHT22;4820;50.870;4.702;2023-04-01T23:02:27;9.80;99.90
9564;DHT22;4820;50.870;4.702;2023-04-01T23:04:59;9.90;99.90
9564;DHT22;4820;50.870;4.702;2023-04-01T23:08:18;9.90;99.90
9564;DHT22;4820;50.870;4.702;2023-04-01T23:10:57;9.80;99.90
9564;DHT22;4820;50.870;4.702;2023-04-01T23:13:32;9.90;99.90
9564;DHT22;4820;50.870;4.702;2023-04-01T23:16:01;9.90;99.90
9564;DHT22;4820;50.870;4.702;2023-04-01T23:19:18;9.80;99.90
9564;DHT22;4820;50.870;4.702;2023-04-01T23:24:31;9.80;99.90
9564;DHT22;4820;50.870;4.702;2023-04-01T23:27:48;9.80;99.90
9564;DHT22;4820;50.870;4.702;2023-04-01T23:29:48;9.80;99.90
9564;DHT22;4820;50.870;4.702;2023-04-01T23:32:19;9.80;99.90
9564;DHT22;4820;50.870;4.702;2023-04-01T23:34:50;9.80;99.90
9564;DHT22;4820;50.870;4.702;2023-04-01T23:37:18;9.70;99.90
9564;DHT22;4820;50.870;4.702;2023-04-01T23:40:12;9.70;99.90
9564;DHT22;4820;50.870;4.702;2023-04-01T23:42:42;9.70;99.90
9564;DHT22;4820;50.870;4.702;2023-04-01T23:45:14;9.70;99.90
9564;DHT22;4820;50.870;4.702;2023-04-01T23:47:43;9.70;99.90
9564;DHT22;4820;50.870;4.702;2023-04-01T23:50:17;9.70;99.90
9564;DHT22;4820;50.870;4.702;2023-04-01T23:52:47;9.70;99.90
9564;DHT22;4820;50.870;4.702;2023-04-01T23:55:15;9.70;99.90
